sensor_id;sensor_type;location;lat;lon;timestamp;pressure;altitude;pressure_sealevel;temperature;humidity
3142;BME280;1581;51.568;6.998;2023-07-16T00:01:19;100223.44;;;22.15;100.00
3142;BME280;1581;51.568;6.998;2023-07-16T00:03:47;100216.97;;;22.06;100.00
3142;BME280;1581;51.568;6.998;2023-07-16T00:06:15;100230.00;;;22.09;100.00
3142;BME280;1581;51.568;6.998;2023-07-16T00:08:42;100244.66;;;21.93;100.00
3142;BME280;1581;51.568;6.998;2023-07-16T00:11:10;100250.13;;;21.88;100.00
3142;BME280;1581;51.568;6.998;2023-07-16T00:13:38;100237.59;;;21.92;100.00
3142;BME280;1581;51.568;6.998;2023-07-16T00:16:07;100237.09;;;21.85;100.00
3142;BME280;1581;51.568;6.998;2023-07-16T00:18:36;100232.72;;;21.94;100.00
3142;BME280;1581;51.568;6.998;2023-07-16T00:21:04;100224.59;;;21.94;100.00
3142;BME280;1581;51.568;6.998;2023-07-16T00:23:31;100228.38;;;21.93;100.00
3142;BME280;1581;51.568;6.998;2023-07-16T00:25:59;100228.94;;;21.95;100.00
3142;BME280;1581;51.568;6.998;2023-07-16T00:28:27;100234.63;;;21.98;100.00
3142;BME280;1581;51.568;6.998;2023-07-16T00:30:54;100229.75;;;21.90;100.00
3142;BME280;1581;51.568;6.998;2023-07-16T00:33:22;100249.03;;;21.89;100.00
3142;BME280;1581;51.568;6.998;2023-07-16T00:35:51;100247.13;;;21.84;100.00
3142;BME280;1581;51.568;6.998;2023-07-16T00:38:19;100249.59;;;21.76;100.00
3142;BME280;1581;51.568;6.998;2023-07-16T00:40:47;100253.09;;;21.67;100.00
3142;BME280;1581;51.568;6.998;2023-07-16T00:43:15;100262.06;;;21.72;100.00
3142;BME280;1581;51.568;6.998;2023-07-16T00:45:46;100258.81;;;21.65;100.00
3142;BME280;1581;51.568;6.998;2023-07-16T00:48:13;100258.25;;;21.78;100.00
3142;BME280;1581;51.568;6.998;2023-07-16T00:50:41;100256.63;;;21.72;100.00
3142;BME280;1581;51.568;6.998;2023-07-16T00:53:11;100257.19;;;21.64;100.00
3142;BME280;1581;51.568;6.998;2023-07-16T00:55:40;100254.47;;;21.64;100.00
3142;BME280;1581;51.568;6.998;2023-07-16T00:58:08;100228.97;;;21.65;100.00
3142;BME280;1581;51.568;6.998;2023-07-16T01:00:38;100235.22;;;21.61;100.00
3142;BME280;1581;51.568;6.998;2023-07-16T01:03:08;100244.16;;;21.66;100.00
3142;BME280;1581;51.568;6.998;2023-07-16T01:05:45;100246.34;;;21.59;100.00
3142;BME280;1581;51.568;6.998;2023-07-16T01:08:24;100243.38;;;21.56;100.00
3142;BME280;1581;51.568;6.998;2023-07-16T01:10:55;100255.25;;;21.50;100.00
3142;BME280;1581;51.568;6.998;2023-07-16T01:13:23;100252.81;;;21.48;100.00
3142;BME280;1581;51.568;6.998;2023-07-16T01:15:51;100252.25;;;21.36;100.00
3142;BME280;1581;51.568;6.998;2023-07-16T01:18:19;100266.63;;;21.37;100.00
3142;BME280;1581;51.568;6.998;2023-07-16T01:20:47;100263.09;;;21.26;100.00
3142;BME280;1581;51.568;6.998;2023-07-16T01:26:42;100264.16;;;21.10;100.00
3142;BME280;1581;51.568;6.998;2023-07-16T01:29:29;100261.97;;;21.12;100.00
3142;BME280;1581;51.568;6.998;2023-07-16T01:32:01;100261.47;;;21.20;100.00
3142;BME280;1581;51.568;6.998;2023-07-16T01:34:33;100266.91;;;21.20;100.00
3142;BME280;1581;51.568;6.998;2023-07-16T01:37:03;100264.44;;;21.29;100.00
3142;BME280;1581;51.568;6.998;2023-07-16T01:39:32;100264.72;;;21.32;100.00
3142;BME280;1581;51.568;6.998;2023-07-16T01:42:01;100264.19;;;21.30;100.00
3142;BME280;1581;51.568;6.998;2023-07-16T01:44:31;100259.56;;;21.31;100.00
3142;BME280;1581;51.568;6.998;2023-07-16T01:47:10;100275.88;;;21.36;100.00
3142;BME280;1581;51.568;6.998;2023-07-16T01:49:39;100274.75;;;21.32;100.00
3142;BME280;1581;51.568;6.998;2023-07-16T01:52:08;100278.78;;;21.14;100.00
3142;BME280;1581;51.568;6.998;2023-07-16T01:54:46;100293.16;;;21.05;100.00
3142;BME280;1581;51.568;6.998;2023-07-16T01:57:14;100290.13;;;21.01;100.00
3142;BME280;1581;51.568;6.998;2023-07-16T01:59:43;100291.50;;;21.04;100.00
3142;BME280;1581;51.568;6.998;2023-07-16T02:02:12;100291.25;;;21.05;100.00
3142;BME280;1581;51.568;6.998;2023-07-16T02:04:42;100300.66;;;20.88;100.00
3142;BME280;1581;51.568;6.998;2023-07-16T02:07:13;100299.31;;;20.85;100.00
3142;BME280;1581;51.568;6.998;2023-07-16T02:09:42;100293.88;;;20.85;100.00
3142;BME280;1581;51.568;6.998;2023-07-16T02:12:10;100299.06;;;20.92;100.00
3142;BME280;1581;51.568;6.998;2023-07-16T02:14:38;100293.25;;;20.69;100.00
3142;BME280;1581;51.568;6.998;2023-07-16T02:17:07;100294.34;;;20.73;100.00
3142;BME280;1581;51.568;6.998;2023-07-16T02:19:35;100301.22;;;20.85;100.00
3142;BME280;1581;51.568;6.998;2023-07-16T02:22:04;100298.22;;;20.86;100.00
3142;BME280;1581;51.568;6.998;2023-07-16T02:24:32;100299.84;;;20.87;100.00
3142;BME280;1581;51.568;6.998;2023-07-16T02:27:02;100297.16;;;20.87;100.00
3142;BME280;1581;51.568;6.998;2023-07-16T02:29:31;100290.09;;;20.91;100.00
3142;BME280;1581;51.568;6.998;2023-07-16T02:31:59;100300.94;;;20.86;100.00
3142;BME280;1581;51.568;6.998;2023-07-16T02:34:29;100302.81;;;20.81;100.00
3142;BME280;1581;51.568;6.998;2023-07-16T02:36:57;100301.66;;;20.72;100.00
3142;BME280;1581;51.568;6.998;2023-07-16T02:39:25;100305.16;;;20.73;100.00
3142;BME280;1581;51.568;6.998;2023-07-16T02:41:53;100313.56;;;20.66;100.00
3142;BME280;1581;51.568;6.998;2023-07-16T02:44:20;100316.50;;;20.65;100.00
3142;BME280;1581;51.568;6.998;2023-07-16T02:46:48;100324.06;;;20.63;100.00
3142;BME280;1581;51.568;6.998;2023-07-16T02:49:19;100323.28;;;20.62;100.00
3142;BME280;1581;51.568;6.998;2023-07-16T02:51:48;100328.47;;;20.69;100.00
3142;BME280;1581;51.568;6.998;2023-07-16T02:54:15;100324.91;;;20.68;100.00
3142;BME280;1581;51.568;6.998;2023-07-16T02:56:43;100321.97;;;20.70;100.00
3142;BME280;1581;51.568;6.998;2023-07-16T02:59:11;100324.41;;;20.71;100.00
3142;BME280;1581;51.568;6.998;2023-07-16T03:01:38;100329.53;;;20.73;100.00
3142;BME280;1581;51.568;6.998;2023-07-16T03:04:06;100324.13;;;20.68;100.00
3142;BME280;1581;51.568;6.998;2023-07-16T03:06:33;100335.22;;;20.66;100.00
3142;BME280;1581;51.568;6.998;2023-07-16T03:09:03;100331.25;;;20.79;100.00
3142;BME280;1581;51.568;6.998;2023-07-16T03:11:31;100324.13;;;20.73;100.00
3142;BME280;1581;51.568;6.998;2023-07-16T03:13:59;100335.31;;;20.81;100.00
3142;BME280;1581;51.568;6.998;2023-07-16T03:16:26;100328.75;;;20.72;100.00
3142;BME280;1581;51.568;6.998;2023-07-16T03:18:54;100340.44;;;20.78;100.00
3142;BME280;1581;51.568;6.998;2023-07-16T03:21:22;100336.06;;;20.77;100.00
3142;BME280;1581;51.568;6.998;2023-07-16T03:23:49;100338.56;;;20.83;100.00
3142;BME280;1581;51.568;6.998;2023-07-16T03:26:19;100343.34;;;20.71;100.00
3142;BME280;1581;51.568;6.998;2023-07-16T03:28:46;100345.59;;;20.79;100.00
3142;BME280;1581;51.568;6.998;2023-07-16T03:31:14;100342.00;;;20.69;100.00
3142;BME280;1581;51.568;6.998;2023-07-16T03:33:42;100349.00;;;20.65;100.00
3142;BME280;1581;51.568;6.998;2023-07-16T03:36:10;100346.53;;;20.58;100.00
3142;BME280;1581;51.568;6.998;2023-07-16T03:38:37;100351.94;;;20.53;100.00
3142;BME280;1581;51.568;6.998;2023-07-16T03:41:05;100349.44;;;20.47;100.00
3142;BME280;1581;51.568;6.998;2023-07-16T03:43:35;100358.44;;;20.57;100.00
3142;BME280;1581;51.568;6.998;2023-07-16T03:46:02;100352.13;;;20.42;100.00
3142;BME280;1581;51.568;6.998;2023-07-16T03:48:33;100361.06;;;20.42;100.00
3142;BME280;1581;51.568;6.998;2023-07-16T03:51:01;100368.34;;;20.42;100.00
3142;BME280;1581;51.568;6.998;2023-07-16T03:53:28;100371.91;;;20.42;100.00
3142;BME280;1581;51.568;6.998;2023-07-16T03:55:56;100378.38;;;20.41;100.00
3142;BME280;1581;51.568;6.998;2023-07-16T03:58:24;100384.56;;;20.37;100.00
3142;BME280;1581;51.568;6.998;2023-07-16T04:00:55;100378.38;;;20.36;100.00
3142;BME280;1581;51.568;6.998;2023-07-16T04:03:23;100400.16;;;20.20;100.00
3142;BME280;1581;51.568;6.998;2023-07-16T04:06:02;100408.78;;;20.17;100.00
3142;BME280;1581;51.568;6.998;2023-07-16T04:08:30;100399.63;;;20.23;100.00
3142;BME280;1581;51.568;6.998;2023-07-16T04:10:58;100406.97;;;20.27;100.00
3142;BME280;1581;51.568;6.998;2023-07-16T04:13:26;100411.28;;;20.23;100.00
3142;BME280;1581;51.568;6.998;2023-07-16T04:15:55;100394.97;;;20.13;100.00
3142;BME280;1581;51.568;6.998;2023-07-16T04:18:24;100409.91;;;20.21;100.00
3142;BME280;1581;51.568;6.998;2023-07-16T04:20:52;100414.50;;;20.20;100.00
3142;BME280;1581;51.568;6.998;2023-07-16T04:23:20;100413.94;;;20.18;100.00
3142;BME280;1581;51.568;6.998;2023-07-16T04:25:52;100424.97;;;20.12;100.00
3142;BME280;1581;51.568;6.998;2023-07-16T04:28:20;100423.34;;;20.11;100.00
3142;BME280;1581;51.568;6.998;2023-07-16T04:30:48;100425.09;;;20.27;100.00
3142;BME280;1581;51.568;6.998;2023-07-16T04:33:17;100427.81;;;20.27;100.00
3142;BME280;1581;51.568;6.998;2023-07-16T04:35:45;100435.72;;;20.38;100.00
3142;BME280;1581;51.568;6.998;2023-07-16T04:38:13;100437.00;;;20.26;100.00
3142;BME280;1581;51.568;6.998;2023-07-16T04:40:43;100440.75;;;20.20;100.00
3142;BME280;1581;51.568;6.998;2023-07-16T04:43:11;100445.97;;;20.31;100.00
3142;BME280;1581;51.568;6.998;2023-07-16T04:45:38;100451.81;;;20.18;100.00
3142;BME280;1581;51.568;6.998;2023-07-16T04:48:06;100440.69;;;20.15;100.00
3142;BME280;1581;51.568;6.998;2023-07-16T04:50:36;100449.75;;;20.30;100.00
3142;BME280;1581;51.568;6.998;2023-07-16T04:53:03;100445.38;;;20.24;100.00
3142;BME280;1581;51.568;6.998;2023-07-16T04:55:36;100449.97;;;20.24;100.00
3142;BME280;1581;51.568;6.998;2023-07-16T04:58:04;100451.59;;;20.25;100.00
3142;BME280;1581;51.568;6.998;2023-07-16T05:00:32;100462.22;;;20.31;100.00
3142;BME280;1581;51.568;6.998;2023-07-16T05:03:00;100460.63;;;20.35;100.00
3142;BME280;1581;51.568;6.998;2023-07-16T05:05:27;100461.72;;;20.39;100.00
3142;BME280;1581;51.568;6.998;2023-07-16T05:07:57;100467.41;;;20.38;100.00
3142;BME280;1581;51.568;6.998;2023-07-16T05:10:24;100475.53;;;20.38;100.00
3142;BME280;1581;51.568;6.998;2023-07-16T05:12:52;100473.38;;;20.40;100.00
3142;BME280;1581;51.568;6.998;2023-07-16T05:15:20;100471.19;;;20.37;100.00
3142;BME280;1581;51.568;6.998;2023-07-16T05:17:48;100478.44;;;20.31;100.00
3142;BME280;1581;51.568;6.998;2023-07-16T05:20:15;100477.38;;;20.32;100.00
3142;BME280;1581;51.568;6.998;2023-07-16T05:22:43;100484.44;;;20.38;100.00
3142;BME280;1581;51.568;6.998;2023-07-16T05:25:12;100480.16;;;20.42;100.00
3142;BME280;1581;51.568;6.998;2023-07-16T05:27:40;100475.81;;;20.36;100.00
3142;BME280;1581;51.568;6.998;2023-07-16T05:30:09;100480.47;;;20.46;100.00
3142;BME280;1581;51.568;6.998;2023-07-16T05:32:37;100488.06;;;20.49;100.00
3142;BME280;1581;51.568;6.998;2023-07-16T05:35:06;100490.50;;;20.50;100.00
3142;BME280;1581;51.568;6.998;2023-07-16T05:37:34;100488.06;;;20.49;100.00
3142;BME280;1581;51.568;6.998;2023-07-16T05:40:04;100497.00;;;20.49;100.00
3142;BME280;1581;51.568;6.998;2023-07-16T05:42:36;100502.19;;;20.56;100.00
3142;BME280;1581;51.568;6.998;2023-07-16T05:45:05;100497.28;;;20.53;100.00
3142;BME280;1581;51.568;6.998;2023-07-16T05:47:33;100506.19;;;20.48;100.00
3142;BME280;1581;51.568;6.998;2023-07-16T05:50:01;100505.41;;;20.53;100.00
3142;BME280;1581;51.568;6.998;2023-07-16T05:52:29;100497.97;;;20.38;100.00
3142;BME280;1581;51.568;6.998;2023-07-16T05:55:00;100503.25;;;20.50;100.00
3142;BME280;1581;51.568;6.998;2023-07-16T05:57:28;100497.28;;;20.48;100.00
3142;BME280;1581;51.568;6.998;2023-07-16T05:59:57;100505.75;;;20.56;100.00
3142;BME280;1581;51.568;6.998;2023-07-16T06:02:25;100508.44;;;20.56;100.00
3142;BME280;1581;51.568;6.998;2023-07-16T06:04:53;100510.66;;;20.64;100.00
3142;BME280;1581;51.568;6.998;2023-07-16T06:07:20;100509.53;;;20.55;100.00
3142;BME280;1581;51.568;6.998;2023-07-16T06:09:48;100507.88;;;20.54;100.00
3142;BME280;1581;51.568;6.998;2023-07-16T06:12:16;100523.66;;;20.62;100.00
3142;BME280;1581;51.568;6.998;2023-07-16T06:14:44;100544.94;;;20.54;98.51
3142;BME280;1581;51.568;6.998;2023-07-16T06:17:13;100515.16;;;20.49;97.17
3142;BME280;1581;51.568;6.998;2023-07-16T06:19:41;100508.91;;;20.48;98.49
3142;BME280;1581;51.568;6.998;2023-07-16T06:22:09;100518.16;;;20.52;96.87
3142;BME280;1581;51.568;6.998;2023-07-16T06:24:36;100522.97;;;20.45;97.50
3142;BME280;1581;51.568;6.998;2023-07-16T06:27:04;100525.88;;;20.39;97.69
3142;BME280;1581;51.568;6.998;2023-07-16T06:29:32;100504.34;;;20.54;96.64
3142;BME280;1581;51.568;6.998;2023-07-16T06:32:00;100529.28;;;20.56;96.10
3142;BME280;1581;51.568;6.998;2023-07-16T06:34:30;100524.44;;;20.58;97.06
3142;BME280;1581;51.568;6.998;2023-07-16T06:36:58;100529.56;;;20.59;93.65
3142;BME280;1581;51.568;6.998;2023-07-16T06:39:26;100534.69;;;20.56;94.19
3142;BME280;1581;51.568;6.998;2023-07-16T06:41:53;100539.81;;;20.52;93.69
3142;BME280;1581;51.568;6.998;2023-07-16T06:44:22;100537.69;;;20.59;92.21
3142;BME280;1581;51.568;6.998;2023-07-16T06:46:50;100543.97;;;20.65;93.09
3142;BME280;1581;51.568;6.998;2023-07-16T06:49:18;100556.44;;;20.66;92.99
3142;BME280;1581;51.568;6.998;2023-07-16T06:51:47;100555.22;;;20.78;93.67
3142;BME280;1581;51.568;6.998;2023-07-16T06:54:15;100565.03;;;20.84;90.71
3142;BME280;1581;51.568;6.998;2023-07-16T06:56:43;100562.75;;;20.76;90.55
3142;BME280;1581;51.568;6.998;2023-07-16T06:59:10;100558.94;;;20.72;89.94
3142;BME280;1581;51.568;6.998;2023-07-16T07:01:38;100558.56;;;20.64;92.39
3142;BME280;1581;51.568;6.998;2023-07-16T07:04:06;100555.38;;;20.67;91.01
3142;BME280;1581;51.568;6.998;2023-07-16T07:06:34;100547.25;;;20.67;90.23
3142;BME280;1581;51.568;6.998;2023-07-16T07:09:03;100547.53;;;20.70;90.79
3142;BME280;1581;51.568;6.998;2023-07-16T07:11:32;100546.75;;;20.75;91.08
3142;BME280;1581;51.568;6.998;2023-07-16T07:13:59;100563.09;;;20.80;90.71
3142;BME280;1581;51.568;6.998;2023-07-16T07:16:27;100545.56;;;20.92;90.94
3142;BME280;1581;51.568;6.998;2023-07-16T07:18:55;100554.03;;;21.00;92.51
3142;BME280;1581;51.568;6.998;2023-07-16T07:21:22;100554.91;;;21.06;89.61
3142;BME280;1581;51.568;6.998;2023-07-16T07:23:50;100562.78;;;21.12;89.66
3142;BME280;1581;51.568;6.998;2023-07-16T07:26:19;100559.84;;;21.19;90.56
3142;BME280;1581;51.568;6.998;2023-07-16T07:28:47;100566.09;;;21.24;91.53
3142;BME280;1581;51.568;6.998;2023-07-16T07:31:15;100562.88;;;21.27;88.87
3142;BME280;1581;51.568;6.998;2023-07-16T07:33:43;100560.97;;;21.23;87.71
3142;BME280;1581;51.568;6.998;2023-07-16T07:36:10;100573.09;;;21.15;88.83
3142;BME280;1581;51.568;6.998;2023-07-16T07:38:39;100564.63;;;21.07;88.14
3142;BME280;1581;51.568;6.998;2023-07-16T07:41:07;100568.44;;;21.06;87.58
3142;BME280;1581;51.568;6.998;2023-07-16T07:43:36;100575.84;;;21.20;87.80
3142;BME280;1581;51.568;6.998;2023-07-16T07:46:04;100580.44;;;21.15;86.95
3142;BME280;1581;51.568;6.998;2023-07-16T07:48:32;100570.66;;;21.14;87.65
3142;BME280;1581;51.568;6.998;2023-07-16T07:51:00;100581.28;;;21.25;86.73
3142;BME280;1581;51.568;6.998;2023-07-16T07:53:28;100579.16;;;21.32;86.18
3142;BME280;1581;51.568;6.998;2023-07-16T07:55:55;100570.50;;;21.30;86.69
3142;BME280;1581;51.568;6.998;2023-07-16T07:58:23;100574.84;;;21.36;85.46
3142;BME280;1581;51.568;6.998;2023-07-16T08:00:53;100585.78;;;21.51;85.38
3142;BME280;1581;51.568;6.998;2023-07-16T08:03:21;100580.09;;;21.53;85.35
3142;BME280;1581;51.568;6.998;2023-07-16T08:05:49;100579.25;;;21.47;84.13
3142;BME280;1581;51.568;6.998;2023-07-16T08:08:16;100583.78;;;21.37;84.78
3142;BME280;1581;51.568;6.998;2023-07-16T08:10:44;100573.44;;;21.24;84.92
3142;BME280;1581;51.568;6.998;2023-07-16T08:13:13;100570.75;;;21.29;85.43
3142;BME280;1581;51.568;6.998;2023-07-16T08:15:41;100574.19;;;21.56;84.15
3142;BME280;1581;51.568;6.998;2023-07-16T08:18:11;100597.75;;;21.55;85.26
3142;BME280;1581;51.568;6.998;2023-07-16T08:20:38;100576.41;;;21.68;82.69
3142;BME280;1581;51.568;6.998;2023-07-16T08:23:07;100573.78;;;21.83;81.47
3142;BME280;1581;51.568;6.998;2023-07-16T08:25:35;100587.91;;;21.85;80.41
3142;BME280;1581;51.568;6.998;2023-07-16T08:28:03;100593.84;;;21.82;79.62
3142;BME280;1581;51.568;6.998;2023-07-16T08:30:32;100589.78;;;21.80;80.14
3142;BME280;1581;51.568;6.998;2023-07-16T08:33:00;100584.34;;;21.80;77.68
3142;BME280;1581;51.568;6.998;2023-07-16T08:35:30;100588.41;;;21.87;77.75
3142;BME280;1581;51.568;6.998;2023-07-16T08:37:57;100591.41;;;21.81;79.62
3142;BME280;1581;51.568;6.998;2023-07-16T08:40:25;100589.53;;;21.96;80.09
3142;BME280;1581;51.568;6.998;2023-07-16T08:42:54;100600.22;;;22.18;79.47
3142;BME280;1581;51.568;6.998;2023-07-16T08:45:24;100590.41;;;22.12;76.97
3142;BME280;1581;51.568;6.998;2023-07-16T08:47:53;100604.56;;;22.24;79.01
3142;BME280;1581;51.568;6.998;2023-07-16T08:50:22;100597.03;;;22.36;76.48
3142;BME280;1581;51.568;6.998;2023-07-16T08:52:54;100590.19;;;22.28;76.70
3142;BME280;1581;51.568;6.998;2023-07-16T08:55:23;100609.19;;;22.28;75.31
3142;BME280;1581;51.568;6.998;2023-07-16T08:57:51;100603.19;;;22.26;76.06
3142;BME280;1581;51.568;6.998;2023-07-16T09:00:19;100601.66;;;22.40;76.40
3142;BME280;1581;51.568;6.998;2023-07-16T09:02:49;100606.56;;;22.43;75.69
3142;BME280;1581;51.568;6.998;2023-07-16T09:05:20;100618.78;;;22.46;75.36
3142;BME280;1581;51.568;6.998;2023-07-16T09:07:48;100613.88;;;22.43;74.81
3142;BME280;1581;51.568;6.998;2023-07-16T09:10:18;100619.31;;;22.48;73.87
3142;BME280;1581;51.568;6.998;2023-07-16T09:12:47;100636.19;;;22.74;72.89
3142;BME280;1581;51.568;6.998;2023-07-16T09:15:18;100633.22;;;22.91;69.68
3142;BME280;1581;51.568;6.998;2023-07-16T09:17:47;100625.88;;;22.81;70.14
3142;BME280;1581;51.568;6.998;2023-07-16T09:20:17;100625.88;;;22.96;69.08
3142;BME280;1581;51.568;6.998;2023-07-16T09:22:46;100637.88;;;23.00;68.07
3142;BME280;1581;51.568;6.998;2023-07-16T09:25:14;100637.88;;;23.00;68.77
3142;BME280;1581;51.568;6.998;2023-07-16T09:27:47;100632.16;;;23.17;68.64
3142;BME280;1581;51.568;6.998;2023-07-16T09:30:16;100630.56;;;23.06;69.73
3142;BME280;1581;51.568;6.998;2023-07-16T09:32:44;100623.47;;;23.25;68.25
3142;BME280;1581;51.568;6.998;2023-07-16T09:35:14;100637.00;;;23.59;69.99
3142;BME280;1581;51.568;6.998;2023-07-16T09:37:43;100635.13;;;23.45;66.40
3142;BME280;1581;51.568;6.998;2023-07-16T09:40:12;100629.66;;;23.55;64.93
3142;BME280;1581;51.568;6.998;2023-07-16T09:42:43;100647.31;;;23.82;67.09
3142;BME280;1581;51.568;6.998;2023-07-16T09:45:17;100645.41;;;23.78;64.00
3142;BME280;1581;51.568;6.998;2023-07-16T09:47:46;100653.63;;;23.38;65.14
3142;BME280;1581;51.568;6.998;2023-07-16T09:50:14;100656.91;;;23.35;64.47
3142;BME280;1581;51.568;6.998;2023-07-16T09:52:42;100644.66;;;23.43;64.55
3142;BME280;1581;51.568;6.998;2023-07-16T09:55:10;100644.34;;;23.69;64.43
3142;BME280;1581;51.568;6.998;2023-07-16T09:57:43;100653.75;;;24.06;64.57
3142;BME280;1581;51.568;6.998;2023-07-16T10:00:13;100647.81;;;23.89;61.82
3142;BME280;1581;51.568;6.998;2023-07-16T10:02:43;100663.91;;;23.81;61.93
3142;BME280;1581;51.568;6.998;2023-07-16T10:05:13;100655.69;;;23.91;62.98
3142;BME280;1581;51.568;6.998;2023-07-16T10:07:41;100653.94;;;24.25;64.39
3142;BME280;1581;51.568;6.998;2023-07-16T10:10:11;100662.59;;;24.46;61.54
3142;BME280;1581;51.568;6.998;2023-07-16T10:12:43;100669.69;;;24.33;61.58
3142;BME280;1581;51.568;6.998;2023-07-16T10:15:12;100665.03;;;24.43;60.47
3142;BME280;1581;51.568;6.998;2023-07-16T10:17:50;100673.25;;;24.33;59.49
3142;BME280;1581;51.568;6.998;2023-07-16T10:20:29;100665.38;;;24.27;60.23
3142;BME280;1581;51.568;6.998;2023-07-16T10:22:59;100666.53;;;24.11;59.43
3142;BME280;1581;51.568;6.998;2023-07-16T10:25:37;100664.28;;;24.23;60.55
3142;BME280;1581;51.568;6.998;2023-07-16T10:28:07;100674.69;;;24.21;60.88
3142;BME280;1581;51.568;6.998;2023-07-16T10:30:35;100666.22;;;24.22;59.18
3142;BME280;1581;51.568;6.998;2023-07-16T10:33:10;100670.03;;;24.21;60.52
3142;BME280;1581;51.568;6.998;2023-07-16T10:35:41;100683.91;;;24.25;59.55
3142;BME280;1581;51.568;6.998;2023-07-16T10:38:09;100678.44;;;24.25;57.99
3142;BME280;1581;51.568;6.998;2023-07-16T10:40:40;100685.88;;;24.14;59.34
3142;BME280;1581;51.568;6.998;2023-07-16T10:43:10;100681.50;;;24.13;58.34
3142;BME280;1581;51.568;6.998;2023-07-16T10:45:38;100678.75;;;24.18;57.62
3142;BME280;1581;51.568;6.998;2023-07-16T10:48:06;100683.41;;;24.13;59.51
3142;BME280;1581;51.568;6.998;2023-07-16T10:50:35;100681.50;;;24.13;58.37
3142;BME280;1581;51.568;6.998;2023-07-16T10:53:03;100681.16;;;24.30;58.47
3142;BME280;1581;51.568;6.998;2023-07-16T10:55:31;100675.91;;;24.48;57.95
3142;BME280;1581;51.568;6.998;2023-07-16T10:58:04;100696.81;;;24.62;57.37
3142;BME280;1581;51.568;6.998;2023-07-16T11:00:37;100685.50;;;24.35;58.59
3142;BME280;1581;51.568;6.998;2023-07-16T11:03:06;100690.47;;;24.19;59.79
3142;BME280;1581;51.568;6.998;2023-07-16T11:05:34;100690.31;;;24.58;58.63
3142;BME280;1581;51.568;6.998;2023-07-16T11:08:03;100682.34;;;24.67;58.78
3142;BME280;1581;51.568;6.998;2023-07-16T11:10:31;100685.78;;;24.87;58.29
3142;BME280;1581;51.568;6.998;2023-07-16T11:12:59;100696.81;;;25.11;57.28
3142;BME280;1581;51.568;6.998;2023-07-16T11:15:35;100688.13;;;24.99;56.04
3142;BME280;1581;51.568;6.998;2023-07-16T11:18:03;100694.00;;;24.77;55.87
3142;BME280;1581;51.568;6.998;2023-07-16T11:20:31;100692.19;;;24.63;57.62
3142;BME280;1581;51.568;6.998;2023-07-16T11:23:00;100696.19;;;24.75;56.80
3142;BME280;1581;51.568;6.998;2023-07-16T11:25:28;100695.06;;;24.81;56.07
3142;BME280;1581;51.568;6.998;2023-07-16T11:27:56;100690.13;;;24.88;57.11
3142;BME280;1581;51.568;6.998;2023-07-16T11:30:24;100692.81;;;24.93;56.98
3142;BME280;1581;51.568;6.998;2023-07-16T11:32:57;100697.78;;;24.81;57.22
3142;BME280;1581;51.568;6.998;2023-07-16T11:35:26;100704.50;;;24.55;57.82
3142;BME280;1581;51.568;6.998;2023-07-16T11:37:55;100705.47;;;24.79;57.20
3142;BME280;1581;51.568;6.998;2023-07-16T11:40:23;100712.28;;;25.20;55.39
3142;BME280;1581;51.568;6.998;2023-07-16T11:42:52;100705.63;;;25.31;54.83
3142;BME280;1581;51.568;6.998;2023-07-16T11:45:22;100710.13;;;25.17;54.18
3142;BME280;1581;51.568;6.998;2023-07-16T11:47:54;100710.72;;;25.04;55.02
3142;BME280;1581;51.568;6.998;2023-07-16T11:50:21;100708.81;;;25.05;55.00
3142;BME280;1581;51.568;6.998;2023-07-16T11:52:53;100720.06;;;24.93;54.86
3142;BME280;1581;51.568;6.998;2023-07-16T11:55:21;100707.25;;;24.45;53.35
3142;BME280;1581;51.568;6.998;2023-07-16T11:57:49;100719.22;;;24.54;53.14
3142;BME280;1581;51.568;6.998;2023-07-16T12:00:18;100714.59;;;24.50;54.13
3142;BME280;1581;51.568;6.998;2023-07-16T12:02:46;100716.03;;;24.86;53.74
3142;BME280;1581;51.568;6.998;2023-07-16T12:05:19;100716.22;;;24.99;53.78
3142;BME280;1581;51.568;6.998;2023-07-16T12:07:47;100720.88;;;25.37;51.35
3142;BME280;1581;51.568;6.998;2023-07-16T12:10:15;100723.19;;;25.53;51.67
3142;BME280;1581;51.568;6.998;2023-07-16T12:12:43;100717.91;;;25.62;53.31
3142;BME280;1581;51.568;6.998;2023-07-16T12:15:11;100728.72;;;25.72;52.95
3142;BME280;1581;51.568;6.998;2023-07-16T12:17:39;100724.19;;;25.62;52.89
3142;BME280;1581;51.568;6.998;2023-07-16T12:20:07;100716.84;;;25.29;53.69
3142;BME280;1581;51.568;6.998;2023-07-16T12:22:36;100717.44;;;25.55;54.79
3142;BME280;1581;51.568;6.998;2023-07-16T12:25:05;100719.56;;;25.29;52.61
3142;BME280;1581;51.568;6.998;2023-07-16T12:27:33;100720.84;;;25.04;54.09
3142;BME280;1581;51.568;6.998;2023-07-16T12:30:01;100714.75;;;24.73;54.58
3142;BME280;1581;51.568;6.998;2023-07-16T12:32:29;100719.66;;;24.71;56.35
3142;BME280;1581;51.568;6.998;2023-07-16T12:34:57;100725.09;;;24.71;54.91
3142;BME280;1581;51.568;6.998;2023-07-16T12:37:26;100729.38;;;24.87;55.73
3142;BME280;1581;51.568;6.998;2023-07-16T12:39:55;100730.91;;;25.03;54.55
3142;BME280;1581;51.568;6.998;2023-07-16T12:42:23;100735.22;;;25.47;54.23
3142;BME280;1581;51.568;6.998;2023-07-16T12:44:51;100742.78;;;25.60;55.22
3142;BME280;1581;51.568;6.998;2023-07-16T12:47:19;100743.06;;;25.59;53.58
3142;BME280;1581;51.568;6.998;2023-07-16T12:49:47;100731.88;;;25.27;54.66
3142;BME280;1581;51.568;6.998;2023-07-16T12:52:15;100732.19;;;24.77;55.41
3142;BME280;1581;51.568;6.998;2023-07-16T12:54:43;100743.78;;;24.44;55.98
3142;BME280;1581;51.568;6.998;2023-07-16T12:57:12;100746.66;;;24.73;55.55
3142;BME280;1581;51.568;6.998;2023-07-16T12:59:40;100743.72;;;25.46;53.05
3142;BME280;1581;51.568;6.998;2023-07-16T13:02:08;100750.66;;;25.62;53.08
3142;BME280;1581;51.568;6.998;2023-07-16T13:04:36;100753.72;;;26.40;50.75
3142;BME280;1581;51.568;6.998;2023-07-16T13:07:04;100745.81;;;27.36;47.73
3142;BME280;1581;51.568;6.998;2023-07-16T13:09:32;100755.19;;;26.75;48.36
3142;BME280;1581;51.568;6.998;2023-07-16T13:12:00;100758.44;;;26.77;47.92
3142;BME280;1581;51.568;6.998;2023-07-16T13:14:29;100760.50;;;28.35;44.99
3142;BME280;1581;51.568;6.998;2023-07-16T13:16:57;100771.97;;;27.10;47.50